Time;durP1;ratioP1;P1;durP2;ratioP2;P2;SDS_P1;SDS_P2;PMS_P1;PMS_P2;Temp;Humidity;BMP_temperature;BMP_pressure;BME280_temperature;BME280_humidity;BME280_pressure;Samples;Min_cycle;Max_cycle;Signal;HPM_P1;HPM_P2
2024/02/21 00:03:41;;;;;;;;;;;;;;;16.29;38.87;96620.06;10515831;28;1499;-59
2024/02/21 00:08:41;;;;;;;;;;;;;;;16.32;38.75;96615.41;10513393;28;1914;-59
2024/02/21 00:13:41;;;;;;;;;;;;;;;16.32;38.85;96623.25;10524699;28;1374;-58
2024/02/21 00:18:41;;;;;;;;;;;;;;;16.31;38.75;96614.59;10526190;28;1335;-58
2024/02/21 00:23:42;;;;;;;;;;;;;;;16.30;38.79;96610.38;10522584;28;2311;-59
2024/02/21 00:28:42;;;;;;;;;;;;;;;16.29;38.75;96601.75;10524349;28;1906;-58
2024/02/21 00:33:42;;;;;;;;;;;;;;;16.31;38.85;96596.28;10519728;28;1756;-58
2024/02/21 00:38:42;;;;;;;;;;;;;;;16.28;38.73;96594.91;10526617;28;1612;-59
2024/02/21 00:43:43;;;;;;;;;;;;;;;16.29;38.71;96591.28;10511996;28;1378;-59
2024/02/21 00:48:43;;;;;;;;;;;;;;;16.29;38.82;96583.44;10516638;28;1973;-58
2024/02/21 00:53:43;;;;;;;;;;;;;;;16.28;38.76;96592.28;10516006;28;1445;-58
2024/02/21 00:58:43;;;;;;;;;;;;;;;16.28;38.76;96584.44;10521834;28;1038;-58
2024/02/21 01:03:44;;;;;;;;;;;;;;;16.28;38.78;96591.47;10519372;28;1626;-58
2024/02/21 01:08:44;;;;;;;;;;;;;;;16.27;38.75;96580.25;10506794;28;1977;-59
2024/02/21 01:13:44;;;;;;;;;;;;;;;16.26;38.67;96581.25;10523394;28;1405;-58
2024/02/21 01:18:44;;;;;;;;;;;;;;;16.27;38.69;96579.44;10511861;28;1332;-58
2024/02/21 01:23:45;;;;;;;;;;;;;;;16.25;38.61;96569.22;10515018;28;2398;-58
2024/02/21 01:28:45;;;;;;;;;;;;;;;16.26;38.72;96554.28;10512820;28;1969;-58
2024/02/21 01:33:45;;;;;;;;;;;;;;;16.25;38.59;96553.50;10524201;28;1617;-59
2024/02/21 01:38:45;;;;;;;;;;;;;;;16.25;38.71;96553.50;10526325;28;1466;-59
2024/02/21 01:43:46;;;;;;;;;;;;;;;16.25;38.72;96552.72;10518301;28;1769;-59
2024/02/21 01:48:46;;;;;;;;;;;;;;;16.25;38.58;96544.84;10527650;28;1959;-59
2024/02/21 01:53:46;;;;;;;;;;;;;;;16.25;38.63;96537.81;10516299;28;1468;-58
2024/02/21 01:58:49;;;;;;;;;;;;;;;16.23;38.58;96518.94;10525029;28;1556;-59
2024/02/21 02:03:49;;;;;;;;;;;;;;;16.23;38.59;96520.75;10521721;28;2500;-59
2024/02/21 02:08:50;;;;;;;;;;;;;;;16.24;38.59;96519.72;10518164;28;1975;-59
2024/02/21 02:13:50;;;;;;;;;;;;;;;16.21;38.59;96502.66;10519845;28;1297;-60
2024/02/21 02:18:50;;;;;;;;;;;;;;;16.22;38.50;96499.03;10520122;28;1513;-60
2024/02/21 02:23:50;;;;;;;;;;;;;;;16.21;38.57;96492.22;10498148;28;1370;-59
2024/02/21 02:28:51;;;;;;;;;;;;;;;16.21;38.53;96486.97;10520360;28;1906;-59
2024/02/21 02:33:51;;;;;;;;;;;;;;;16.21;38.54;96480.94;10516292;28;1961;-59
2024/02/21 02:38:51;;;;;;;;;;;;;;;16.20;38.51;96474.09;10517343;28;1378;-60
2024/02/21 02:43:51;;;;;;;;;;;;;;;16.21;38.50;96473.09;10516049;28;1011;-60
2024/02/21 02:48:52;;;;;;;;;;;;;;;16.20;38.49;96469.69;10512590;28;1914;-59
2024/02/21 02:53:52;;;;;;;;;;;;;;;16.20;38.42;96453.19;10512764;28;1337;-59
2024/02/21 02:58:52;;;;;;;;;;;;;;;16.18;38.51;96448.19;10520077;28;2425;-59
2024/02/21 03:03:53;;;;;;;;;;;;;;;16.18;38.51;96450.81;10513919;28;1518;-59
2024/02/21 03:08:54;;;;;;;;;;;;;;;16.18;38.44;96448.19;10521079;28;2243;-59
2024/02/21 03:13:56;;;;;;;;;;;;;;;16.19;38.44;96446.38;10513738;28;1540;-58
2024/02/21 03:18:56;;;;;;;;;;;;;;;16.18;38.41;96440.34;10516591;28;1294;-59
2024/02/21 03:23:57;;;;;;;;;;;;;;;16.18;38.45;96444.75;10517406;28;1592;-59
2024/02/21 03:28:57;;;;;;;;;;;;;;;16.18;38.51;96445.56;10519783;28;1985;-59
2024/02/21 03:33:58;;;;;;;;;;;;;;;16.18;38.45;96440.34;10509927;28;1580;-59
2024/02/21 03:38:58;;;;;;;;;;;;;;;16.17;38.38;96443.19;10526452;28;1499;-59
2024/02/21 03:43:58;;;;;;;;;;;;;;;16.16;38.46;96447.63;10517057;28;979;-59
2024/02/21 03:49:00;;;;;;;;;;;;;;;16.17;38.46;96445.81;10527462;28;1906;-59
2024/02/21 03:54:00;;;;;;;;;;;;;;;16.17;38.40;96435.34;10512331;28;2368;-59
2024/02/21 03:59:01;;;;;;;;;;;;;;;16.17;38.36;96432.72;10524581;28;1022;-59
2024/02/21 04:04:01;;;;;;;;;;;;;;;16.15;38.27;96438.19;10517835;28;1410;-59
2024/02/21 04:09:02;;;;;;;;;;;;;;;16.14;38.56;96436.59;10532695;28;1970;-59
2024/02/21 04:14:02;;;;;;;;;;;;;;;16.16;38.39;96431.94;10532469;28;1246;-59
2024/02/21 04:19:02;;;;;;;;;;;;;;;16.15;38.34;96426.94;10523295;28;1660;-59
2024/02/21 04:24:05;;;;;;;;;;;;;;;16.15;38.24;96417.28;10527578;28;1361;-59
2024/02/21 04:29:05;;;;;;;;;;;;;;;16.14;38.34;96413.06;10513841;28;1914;-59
2024/02/21 04:34:06;;;;;;;;;;;;;;;16.15;38.29;96408.63;10515469;28;1662;-59
2024/02/21 04:39:06;;;;;;;;;;;;;;;16.14;38.27;96412.25;10515757;28;1422;-58
2024/02/21 04:44:06;;;;;;;;;;;;;;;16.13;38.32;96395.78;10520152;28;1412;-59
2024/02/21 04:49:06;;;;;;;;;;;;;;;16.13;38.20;96385.31;10517157;28;2464;-59
2024/02/21 04:54:07;;;;;;;;;;;;;;;16.12;38.31;96386.31;10512151;28;1479;-59
2024/02/21 04:59:07;;;;;;;;;;;;;;;16.13;38.21;96372.25;10514240;28;1555;-59
2024/02/21 05:04:07;;;;;;;;;;;;;;;16.12;38.21;96357.56;10521711;28;1695;-59
2024/02/21 05:09:08;;;;;;;;;;;;;;;16.12;38.27;96356.75;10521250;28;1909;-59
2024/02/21 05:14:08;;;;;;;;;;;;;;;16.11;38.30;96350.75;10513251;28;1824;-59
2024/02/21 05:19:09;;;;;;;;;;;;;;;16.12;38.23;96341.88;10523132;28;1807;-59
2024/02/21 05:24:09;;;;;;;;;;;;;;;16.10;38.28;96336.06;10512551;28;1600;-59
2024/02/21 05:29:09;;;;;;;;;;;;;;;16.12;38.18;96320.16;10517737;28;1918;-56
2024/02/21 05:34:11;;;;;;;;;;;;;;;16.09;38.12;96329.25;10519020;28;1152;-59
2024/02/21 05:39:11;;;;;;;;;;;;;;;16.08;38.19;96317.22;10515592;28;1597;-58
2024/02/21 05:44:11;;;;;;;;;;;;;;;16.09;38.19;96315.38;10513275;28;2428;-59
2024/02/21 05:49:12;;;;;;;;;;;;;;;16.09;38.27;96318.00;10514436;28;1914;-58
2024/02/21 05:54:12;;;;;;;;;;;;;;;16.08;38.21;96304.13;10520266;28;1338;-59
2024/02/21 05:59:12;;;;;;;;;;;;;;;16.08;38.24;96298.91;10512234;28;1398;-59
2024/02/21 06:04:12;;;;;;;;;;;;;;;16.08;38.24;96287.63;10525175;28;1620;-59
2024/02/21 06:09:13;;;;;;;;;;;;;;;16.06;38.19;96285.25;10516827;28;1910;-59
2024/02/21 06:14:13;;;;;;;;;;;;;;;16.06;38.35;96280.03;10507525;28;1357;-58
2024/02/21 06:19:13;;;;;;;;;;;;;;;16.07;38.17;96288.69;10511311;28;1417;-59
2024/02/21 06:24:14;;;;;;;;;;;;;;;16.06;38.17;96282.66;10509900;28;1426;-59
2024/02/21 06:29:14;;;;;;;;;;;;;;;16.06;38.13;96269.56;10526186;28;1905;-59
2024/02/21 06:34:14;;;;;;;;;;;;;;;16.04;38.18;96271.63;10521561;28;1753;-59
2024/02/21 06:39:14;;;;;;;;;;;;;;;16.06;38.02;96274.81;10519646;28;2357;-59
2024/02/21 06:44:15;;;;;;;;;;;;;;;16.04;38.20;96276.84;10519528;28;1485;-59
2024/02/21 06:49:18;;;;;;;;;;;;;;;16.05;38.15;96285.50;10521628;28;1858;-59
2024/02/21 06:54:18;;;;;;;;;;;;;;;16.05;38.14;96277.66;10509001;28;1621;-59
2024/02/21 06:59:18;;;;;;;;;;;;;;;16.04;38.03;96274.25;10510791;28;948;-59
2024/02/21 07:04:18;;;;;;;;;;;;;;;16.04;38.15;96276.06;10511912;28;1400;-59
2024/02/21 07:09:19;;;;;;;;;;;;;;;16.04;38.09;96265.59;10519889;28;1902;-59
2024/02/21 07:14:19;;;;;;;;;;;;;;;16.03;37.98;96272.63;10533068;28;1350;-59
2024/02/21 07:19:21;;;;;;;;;;;;;;;16.04;38.07;96270.81;10510869;28;1026;-59
2024/02/21 07:24:22;;;;;;;;;;;;;;;16.02;37.95;96258.00;10524097;28;1409;-59
2024/02/21 07:29:24;;;;;;;;;;;;;;;16.02;38.04;96258.00;10529832;28;1898;-57
2024/02/21 07:34:25;;;;;;;;;;;;;;;16.02;37.99;96263.22;10521308;28;1330;-59
2024/02/21 07:39:25;;;;;;;;;;;;;;;16.01;38.09;96259.00;10521404;28;2993;-59
2024/02/21 07:44:25;;;;;;;;;;;;;;;16.01;38.07;96255.63;10527358;28;1486;-59
2024/02/21 07:49:25;;;;;;;;;;;;;;;16.02;37.99;96251.97;10528835;28;1976;-59
2024/02/21 07:54:26;;;;;;;;;;;;;;;16.02;38.03;96246.72;10522772;28;1429;-59
2024/02/21 07:59:26;;;;;;;;;;;;;;;16.02;38.04;96236.28;10519799;28;1358;-59
2024/02/21 08:04:26;;;;;;;;;;;;;;;16.02;38.04;96220.56;10524450;28;1552;-60
2024/02/21 08:09:26;;;;;;;;;;;;;;;16.02;37.93;96207.50;10520180;28;1894;-59
2024/02/21 08:14:27;;;;;;;;;;;;;;;16.02;38.13;96192.63;10513781;28;967;-60
2024/02/21 08:19:27;;;;;;;;;;;;;;;16.03;38.14;96178.50;10520282;28;1465;-59
2024/02/21 08:24:27;;;;;;;;;;;;;;;16.04;38.11;96176.69;10516549;28;1416;-59
2024/02/21 08:29:28;;;;;;;;;;;;;;;16.03;38.09;96178.50;10501610;28;1906;-59
2024/02/21 08:34:30;;;;;;;;;;;;;;;16.03;38.16;96188.97;10520593;28;2288;-59
2024/02/21 08:39:30;;;;;;;;;;;;;;;16.04;38.22;96181.91;10523456;28;1421;-60
2024/02/21 08:44:30;;;;;;;;;;;;;;;16.04;38.10;96187.16;10516570;28;1159;-58
2024/02/21 08:49:32;;;;;;;;;;;;;;;16.03;38.22;96188.97;10521578;28;1946;-59
2024/02/21 08:54:35;;;;;;;;;;;;;;;16.04;38.31;96182.72;10525714;28;1381;-58
2024/02/21 08:59:35;;;;;;;;;;;;;;;16.03;38.25;96183.72;10530995;28;1592;-58
2024/02/21 09:04:35;;;;;;;;;;;;;;;16.03;38.39;96181.13;10512294;28;1386;-61
2024/02/21 09:09:36;;;;;;;;;;;;;;;16.04;38.24;96177.50;10519651;28;1901;-59
2024/02/21 09:14:38;;;;;;;;;;;;;;;16.04;38.29;96177.50;10516809;28;1197;-59
2024/02/21 09:19:38;;;;;;;;;;;;;;;16.05;38.43;96180.91;10526746;28;1314;-59
2024/02/21 09:24:38;;;;;;;;;;;;;;;16.04;38.39;96182.72;10518225;28;1350;-59
2024/02/21 09:29:39;;;;;;;;;;;;;;;16.04;38.34;96187.94;10513634;28;2411;-59
2024/02/21 09:34:39;;;;;;;;;;;;;;;16.05;38.31;96178.28;10517583;28;1463;-59
2024/02/21 09:39:39;;;;;;;;;;;;;;;16.06;38.43;96178.03;10517327;28;1357;-59
2024/02/21 09:44:40;;;;;;;;;;;;;;;16.05;38.46;96176.44;10516892;28;1649;-59
2024/02/21 09:49:41;;;;;;;;;;;;;;;16.06;38.47;96164.16;10515131;28;1913;-59
2024/02/21 09:54:44;;;;;;;;;;;;;;;16.07;38.57;96156.09;10522326;28;1426;-59
2024/02/21 09:59:46;;;;;;;;;;;;;;;16.07;38.47;96155.31;10516291;28;1376;-59
2024/02/21 10:04:46;;;;;;;;;;;;;;;16.08;38.49;96151.66;10514864;28;1092;-59
2024/02/21 10:09:48;;;;;;;;;;;;;;;16.07;38.43;96148.25;10510242;28;1906;-59
2024/02/21 10:14:48;;;;;;;;;;;;;;;16.08;38.36;96144.59;10513599;28;1520;-59
2024/02/21 10:19:52;;;;;;;;;;;;;;;16.08;38.46;96139.38;10520259;28;1215;-59
2024/02/21 10:24:54;;;;;;;;;;;;;;;16.09;38.49;96134.94;10520519;28;2287;-59
2024/02/21 10:29:54;;;;;;;;;;;;;;;16.10;38.52;96136.53;10514761;28;1906;-58
2024/02/21 10:35:02;;;;;;;;;;;;;;;16.10;38.54;96126.88;10512306;28;1756;-59
2024/02/21 10:40:05;;;;;;;;;;;;;;;16.12;38.56;96116.97;10522928;28;1601;-59
2024/02/21 10:45:06;;;;;;;;;;;;;;;16.13;38.49;96097.63;10517722;28;1303;-59
2024/02/21 10:50:06;;;;;;;;;;;;;;;16.14;38.53;96088.75;10512073;28;1973;-59
2024/02/21 10:55:10;;;;;;;;;;;;;;;16.14;38.62;96073.06;10517535;28;1720;-59
2024/02/21 11:00:12;;;;;;;;;;;;;;;16.16;38.55;96057.91;10515693;28;1389;-62
2024/02/21 11:05:12;;;;;;;;;;;;;;;16.16;38.65;96047.47;10513476;28;1968;-59
2024/02/21 11:10:25;;;;;;;;;;;;;;;16.18;38.63;96045.41;10504951;28;1402;-59
2024/02/21 11:15:28;;;;;;;;;;;;;;;16.19;38.53;96028.69;10520539;28;2386;-58
2024/02/21 11:20:34;;;;;;;;;;;;;;;16.21;38.58;96012.75;10520634;28;1625;-59
2024/02/21 11:25:35;;;;;;;;;;;;;;;16.21;38.59;96004.91;10515934;28;1973;-58
2024/02/21 11:30:35;;;;;;;;;;;;;;;16.22;38.59;95990.78;10510992;28;1697;-58
2024/02/21 11:35:36;;;;;;;;;;;;;;;16.23;38.60;95989.75;10515771;28;1756;-59
2024/02/21 11:40:38;;;;;;;;;;;;;;;16.24;38.59;95981.66;10511763;28;1597;-60
2024/02/21 11:45:39;;;;;;;;;;;;;;;16.23;38.64;95969.63;10528124;28;1955;-58
2024/02/21 11:50:39;;;;;;;;;;;;;;;16.22;38.73;95965.41;10520564;28;1842;-57
2024/02/21 11:55:40;;;;;;;;;;;;;;;16.23;38.82;95947.91;10521647;28;1034;-59
2024/02/21 12:00:40;;;;;;;;;;;;;;;16.25;38.64;95938.00;10528419;28;1338;-59
2024/02/21 12:05:41;;;;;;;;;;;;;;;16.23;38.74;95925.16;10517004;28;1961;-59
2024/02/21 12:10:42;;;;;;;;;;;;;;;16.25;38.77;95907.41;10522271;28;2546;-60
2024/02/21 12:15:42;;;;;;;;;;;;;;;16.28;38.71;95914.75;10524078;28;1529;-60
2024/02/21 12:20:42;;;;;;;;;;;;;;;16.29;38.77;95897.25;10508410;28;1653;-60
2024/02/21 12:25:42;;;;;;;;;;;;;;;16.29;38.83;95892.81;10517487;28;1918;-58
2024/02/21 12:30:43;;;;;;;;;;;;;;;16.30;38.88;95881.31;10516561;28;1602;-58
2024/02/21 12:35:43;;;;;;;;;;;;;;;16.33;38.83;95871.38;10529056;28;1353;-59
2024/02/21 12:40:43;;;;;;;;;;;;;;;16.36;38.95;95860.44;10526016;28;1714;-59
2024/02/21 12:45:44;;;;;;;;;;;;;;;16.37;38.89;95846.31;10514224;28;1997;-59
2024/02/21 12:50:53;;;;;;;;;;;;;;;16.38;38.81;95838.25;10513591;28;2449;-59
2024/02/21 12:55:53;;;;;;;;;;;;;;;16.40;38.77;95835.38;10516710;28;1344;-59
2024/02/21 13:00:53;;;;;;;;;;;;;;;16.40;38.81;95819.69;10523286;28;1378;-59
2024/02/21 13:05:54;;;;;;;;;;;;;;;16.43;38.80;95808.72;10518854;28;1899;-59
2024/02/21 13:10:54;;;;;;;;;;;;;;;16.44;38.93;95799.84;10514424;28;1043;-59
2024/02/21 13:15:54;;;;;;;;;;;;;;;16.45;38.86;95786.50;10519028;28;1353;-59
2024/02/21 13:20:55;;;;;;;;;;;;;;;16.46;38.86;95776.84;10515782;28;1671;-58
2024/02/21 13:25:55;;;;;;;;;;;;;;;16.48;38.80;95767.72;10511113;28;1969;-59
2024/02/21 13:30:55;;;;;;;;;;;;;;;16.49;38.92;95765.88;10524886;28;1660;-58
2024/02/21 13:35:55;;;;;;;;;;;;;;;16.47;38.97;95758.28;10519366;28;2488;-58
2024/02/21 13:40:56;;;;;;;;;;;;;;;16.49;38.89;95748.38;10525865;28;1149;-58
2024/02/21 13:45:58;;;;;;;;;;;;;;;16.50;38.79;95742.13;10516164;28;1984;-58
2024/02/21 13:50:59;;;;;;;;;;;;;;;16.50;38.74;95730.84;10532801;28;1738;-58
2024/02/21 13:55:59;;;;;;;;;;;;;;;16.52;38.73;95715.69;10519257;28;1335;-57
2024/02/21 14:01:00;;;;;;;;;;;;;;;16.53;38.75;95714.66;10519096;28;1338;-59
2024/02/21 14:06:00;;;;;;;;;;;;;;;16.53;38.82;95702.38;10528946;28;1909;-59
2024/02/21 14:11:01;;;;;;;;;;;;;;;16.55;38.77;95695.06;10527856;28;1737;-58
2024/02/21 14:16:01;;;;;;;;;;;;;;;16.55;38.71;95683.81;10518986;28;1290;-58
2024/02/21 14:21:01;;;;;;;;;;;;;;;16.54;38.87;95674.38;10511402;28;1393;-58
2024/02/21 14:26:04;;;;;;;;;;;;;;;16.54;38.81;95675.16;10512404;28;2392;-59
2024/02/21 14:31:05;;;;;;;;;;;;;;;16.52;38.87;95665.97;10517717;28;1666;-55
2024/02/21 14:36:07;;;;;;;;;;;;;;;16.50;38.97;95653.16;10516056;28;1731;-58
2024/02/21 14:41:07;;;;;;;;;;;;;;;16.50;38.96;95645.31;10520061;28;1110;-59
2024/02/21 14:46:08;;;;;;;;;;;;;;;16.49;39.03;95640.28;10512049;28;1969;-59
2024/02/21 14:51:10;;;;;;;;;;;;;;;16.47;39.08;95639.75;10514985;28;1361;-59
2024/02/21 14:56:17;;;;;;;;;;;;;;;16.47;38.95;95632.69;10512666;28;948;-59
2024/02/21 15:01:17;;;;;;;;;;;;;;;16.47;39.03;95634.50;10523651;28;1564;-59
2024/02/21 15:06:17;;;;;;;;;;;;;;;16.46;39.07;95625.88;10508664;28;5670;-59
2024/02/21 15:11:18;;;;;;;;;;;;;;;16.45;39.09;95628.72;10516272;28;1033;-59
2024/02/21 15:16:18;;;;;;;;;;;;;;;16.45;39.00;95628.72;10522361;28;1490;-59
2024/02/21 15:21:18;;;;;;;;;;;;;;;16.44;39.05;95627.16;10516725;28;1577;-56
2024/02/21 15:26:20;;;;;;;;;;;;;;;16.43;38.98;95626.38;10509281;28;1905;-59
2024/02/21 15:31:22;;;;;;;;;;;;;;;16.43;39.02;95621.16;10520997;28;1663;-59
2024/02/21 15:36:22;;;;;;;;;;;;;;;16.41;38.96;95620.59;10525832;28;1406;-59
2024/02/21 15:41:23;;;;;;;;;;;;;;;16.40;39.16;95618.25;10518225;28;987;-58
2024/02/21 15:46:23;;;;;;;;;;;;;;;16.39;39.12;95616.66;10516314;28;1938;-58
2024/02/21 15:51:23;;;;;;;;;;;;;;;16.38;39.06;95612.47;10534922;28;1386;-59
2024/02/21 15:56:24;;;;;;;;;;;;;;;16.37;38.96;95603.03;10524085;28;1101;-58
2024/02/21 16:01:24;;;;;;;;;;;;;;;16.36;39.11;95597.03;10529536;28;2232;-59
2024/02/21 16:06:24;;;;;;;;;;;;;;;16.37;39.15;95595.19;10518193;28;1902;-58
2024/02/21 16:11:24;;;;;;;;;;;;;;;16.36;39.13;95593.63;10514171;28;1021;-59
2024/02/21 16:16:25;;;;;;;;;;;;;;;16.35;39.01;95586.81;10528340;28;1682;-59
2024/02/21 16:21:26;;;;;;;;;;;;;;;16.34;39.05;95570.34;10533367;28;1326;-59
2024/02/21 16:26:26;;;;;;;;;;;;;;;16.34;39.07;95570.34;10523475;28;1906;-58
2024/02/21 16:31:27;;;;;;;;;;;;;;;16.33;39.07;95571.38;10536994;28;1440;-59
2024/02/21 16:36:27;;;;;;;;;;;;;;;16.34;39.22;95564.31;10527392;28;1373;-58
2024/02/21 16:41:27;;;;;;;;;;;;;;;16.32;39.04;95567.19;10521757;28;1564;-59
2024/02/21 16:46:28;;;;;;;;;;;;;;;16.30;39.08;95564.00;10496436;28;1961;-59
2024/02/21 16:51:28;;;;;;;;;;;;;;;16.30;39.08;95556.16;10524576;28;2275;-58
2024/02/21 16:56:28;;;;;;;;;;;;;;;16.30;39.13;95559.56;10522984;28;1680;-58
2024/02/21 17:01:28;;;;;;;;;;;;;;;16.30;39.21;95558.78;10516261;28;1313;-58
2024/02/21 17:06:28;;;;;;;;;;;;;;;16.29;39.21;95554.59;10522381;28;1981;-58
2024/02/21 17:11:29;;;;;;;;;;;;;;;16.28;39.15;95551.19;10516825;28;1619;-58
2024/02/21 17:16:30;;;;;;;;;;;;;;;16.27;39.11;95539.16;10517416;28;1397;-58
2024/02/21 17:21:30;;;;;;;;;;;;;;;16.29;39.13;95537.09;10517251;28;1413;-58
2024/02/21 17:26:31;;;;;;;;;;;;;;;16.28;39.10;95524.25;10520962;28;1898;-58
2024/02/21 17:31:31;;;;;;;;;;;;;;;16.28;39.16;95519.00;10514131;28;1481;-58
2024/02/21 17:36:31;;;;;;;;;;;;;;;16.27;39.08;95525.28;10513015;28;1425;-58
2024/02/21 17:41:31;;;;;;;;;;;;;;;16.27;39.15;95507.00;10514808;28;927;-58
2024/02/21 17:46:32;;;;;;;;;;;;;;;16.26;39.11;95506.19;10521624;28;2453;-58
2024/02/21 17:51:32;;;;;;;;;;;;;;;16.26;39.08;95502.78;10517111;28;1699;-58
2024/02/21 17:56:32;;;;;;;;;;;;;;;16.25;39.12;95494.16;10515889;28;1543;-57
2024/02/21 18:01:33;;;;;;;;;;;;;;;16.26;39.10;95487.09;10521942;28;1592;-58
2024/02/21 18:06:33;;;;;;;;;;;;;;;16.26;39.09;95476.63;10509350;28;1976;-58
2024/02/21 18:11:33;;;;;;;;;;;;;;;16.25;39.09;95478.47;10519489;28;1438;-57
2024/02/21 18:16:36;;;;;;;;;;;;;;;16.24;39.06;95466.44;10517570;28;1494;-58
2024/02/21 18:21:37;;;;;;;;;;;;;;;16.24;39.02;95455.97;10517396;28;1597;-58
2024/02/21 18:26:37;;;;;;;;;;;;;;;16.24;39.06;95450.72;10515413;28;1914;-58
2024/02/21 18:31:38;;;;;;;;;;;;;;;16.25;39.11;95452.31;10502648;28;1550;-58
2024/02/21 18:36:38;;;;;;;;;;;;;;;16.23;39.03;95441.31;10517662;28;1574;-58
2024/02/21 18:41:41;;;;;;;;;;;;;;;16.24;39.08;95435.03;10525922;28;1537;-58
2024/02/21 18:46:41;;;;;;;;;;;;;;;16.23;39.00;95423.03;10521331;28;2745;-60
2024/02/21 18:51:41;;;;;;;;;;;;;;;16.23;39.10;95422.22;10511495;28;1414;-59
2024/02/21 18:56:45;;;;;;;;;;;;;;;16.24;39.09;95419.34;10522685;28;1588;-59
2024/02/21 19:01:45;;;;;;;;;;;;;;;16.22;38.99;95410.97;10525305;28;1366;-59
2024/02/21 19:06:47;;;;;;;;;;;;;;;16.22;39.08;95403.13;10513904;28;1974;-59
2024/02/21 19:11:47;;;;;;;;;;;;;;;16.22;39.22;95400.50;10521756;28;1137;-58
2024/02/21 19:16:47;;;;;;;;;;;;;;;16.22;39.08;95395.28;10517166;28;1346;-58
2024/02/21 19:21:47;;;;;;;;;;;;;;;16.22;38.98;95384.03;10507482;28;1335;-59
2024/02/21 19:26:48;;;;;;;;;;;;;;;16.20;39.08;95381.69;10515758;28;1901;-59
2024/02/21 19:31:48;;;;;;;;;;;;;;;16.21;38.97;95378.03;10503560;28;1329;-57
2024/02/21 19:36:49;;;;;;;;;;;;;;;16.22;38.97;95382.22;10513241;28;1797;-58
2024/02/21 19:41:49;;;;;;;;;;;;;;;16.21;38.99;95377.25;10519717;28;2504;-58
2024/02/21 19:46:50;;;;;;;;;;;;;;;16.20;39.05;95373.81;10509906;28;1918;-58
2024/02/21 19:51:50;;;;;;;;;;;;;;;16.21;39.00;95364.97;10519313;28;1302;-58
2024/02/21 19:56:51;;;;;;;;;;;;;;;16.21;38.96;95364.16;10518950;28;1169;-57
2024/02/21 20:01:52;;;;;;;;;;;;;;;16.21;39.01;95351.09;10517741;28;1659;-59
2024/02/21 20:06:53;;;;;;;;;;;;;;;16.21;39.01;95343.25;10512232;28;1886;-59
2024/02/21 20:11:53;;;;;;;;;;;;;;;16.20;38.96;95339.84;10518134;28;1101;-59
2024/02/21 20:16:55;;;;;;;;;;;;;;;16.20;38.91;95337.22;10518192;28;1408;-58
2024/02/21 20:21:55;;;;;;;;;;;;;;;16.19;38.94;95338.28;10527854;28;1449;-59
2024/02/21 20:26:56;;;;;;;;;;;;;;;16.19;39.00;95327.81;10518941;28;1897;-59
2024/02/21 20:31:59;;;;;;;;;;;;;;;16.20;39.07;95326.75;10518260;28;1448;-58
2024/02/21 20:36:59;;;;;;;;;;;;;;;16.19;38.94;95317.34;10515930;28;2256;-59
2024/02/21 20:41:59;;;;;;;;;;;;;;;16.19;38.98;95312.13;10525571;28;1546;-58
2024/02/21 20:47:01;;;;;;;;;;;;;;;16.19;38.99;95306.91;10528438;28;1906;-59
2024/02/21 20:52:01;;;;;;;;;;;;;;;16.18;38.94;95297.47;10515148;28;1646;-58
2024/02/21 20:57:02;;;;;;;;;;;;;;;16.19;38.98;95296.44;10523434;28;1084;-58
2024/02/21 21:02:02;;;;;;;;;;;;;;;16.19;38.92;95300.88;10525026;28;1424;-59
2024/02/21 21:07:03;;;;;;;;;;;;;;;16.18;38.91;95294.84;10516636;28;1918;-59
2024/02/21 21:12:04;;;;;;;;;;;;;;;16.19;38.93;95285.19;10536651;28;980;-58
2024/02/21 21:17:05;;;;;;;;;;;;;;;16.19;38.90;95280.75;10536637;28;1374;-59
2024/02/21 21:22:06;;;;;;;;;;;;;;;16.18;38.89;95284.38;10519101;28;1353;-58
2024/02/21 21:27:06;;;;;;;;;;;;;;;16.17;39.06;95280.22;10522878;28;1905;-58
2024/02/21 21:32:06;;;;;;;;;;;;;;;16.18;38.82;95278.38;10516654;28;2303;-59
2024/02/21 21:37:06;;;;;;;;;;;;;;;16.17;38.89;95277.59;10532916;28;1888;-58
2024/02/21 21:42:07;;;;;;;;;;;;;;;16.17;38.83;95261.13;10525603;28;1732;-59
2024/02/21 21:47:08;;;;;;;;;;;;;;;16.17;38.95;95261.91;10516649;28;1906;-59
2024/02/21 21:52:08;;;;;;;;;;;;;;;16.17;38.89;95251.44;10520640;28;1441;-59
2024/02/21 21:57:08;;;;;;;;;;;;;;;16.17;38.84;95251.44;10522658;28;996;-59
2024/02/21 22:02:08;;;;;;;;;;;;;;;16.18;39.02;95254.84;10520077;28;1592;-59
2024/02/21 22:07:09;;;;;;;;;;;;;;;16.17;38.90;95251.44;10515360;28;1973;-59
2024/02/21 22:12:09;;;;;;;;;;;;;;;16.17;38.96;95240.19;10510174;28;1018;-60
2024/02/21 22:17:09;;;;;;;;;;;;;;;16.16;38.88;95249.88;10520024;28;2260;-59
2024/02/21 22:22:10;;;;;;;;;;;;;;;16.17;38.84;95243.63;10525206;28;1480;-59
2024/02/21 22:27:11;;;;;;;;;;;;;;;16.16;38.85;95231.56;10511744;28;1972;-58
2024/02/21 22:32:11;;;;;;;;;;;;;;;16.15;38.86;95227.41;10506483;28;1573;-60
2024/02/21 22:37:11;;;;;;;;;;;;;;;16.15;38.88;95227.41;10518349;28;1465;-59
2024/02/21 22:42:12;;;;;;;;;;;;;;;16.16;38.98;95215.88;10525402;28;995;-59
2024/02/21 22:47:12;;;;;;;;;;;;;;;16.16;38.84;95207.25;10504484;28;1913;-59
2024/02/21 22:52:13;;;;;;;;;;;;;;;16.16;38.91;95204.63;10518281;28;1354;-59
2024/02/21 22:57:13;;;;;;;;;;;;;;;16.16;38.88;95176.66;10519409;28;1101;-59
2024/02/21 23:02:13;;;;;;;;;;;;;;;16.15;38.85;95167.25;10508568;28;1433;-59
2024/02/21 23:07:13;;;;;;;;;;;;;;;16.16;38.91;95150.50;10511065;28;1905;-59
2024/02/21 23:12:16;;;;;;;;;;;;;;;16.17;38.85;95133.78;10514788;28;2392;-59
2024/02/21 23:17:17;;;;;;;;;;;;;;;16.21;38.84;95123.59;10522420;28;1496;-59
2024/02/21 23:22:17;;;;;;;;;;;;;;;16.26;38.83;95116.53;10515528;28;1417;-58
2024/02/21 23:27:17;;;;;;;;;;;;;;;16.32;38.94;95106.06;10517132;28;1902;-58
2024/02/21 23:32:18;;;;;;;;;;;;;;;16.37;38.84;95098.22;10519484;28;1555;-59
2024/02/21 23:37:19;;;;;;;;;;;;;;;16.43;38.76;95094.53;10502178;28;1730;-59
2024/02/21 23:42:19;;;;;;;;;;;;;;;16.48;38.76;95071.00;10520896;28;1023;-59
2024/02/21 23:47:19;;;;;;;;;;;;;;;16.54;38.81;95062.13;10531491;28;1959;-59
2024/02/21 23:52:19;;;;;;;;;;;;;;;16.59;38.74;95059.53;10525252;28;1440;-59
2024/02/21 23:57:20;;;;;;;;;;;;;;;16.63;38.57;95050.09;10533544;28;924;-59
